The Meadows, Iowa
Current Conditions -  °F | °C
As of 10:35 AM on Tuesday 21 Oct 2014 (Local Time) from KPRO Reporting Station
Clear Clear  
Wind Chill: 53°   Ceiling: Unl
Heat Index: 53°   Visibility: 10mi
Dew Point: 45°   Wind: 3mph
Humidity: 73%   Direction: 120°ESE
Pressure: 30.16"   Gusts: NA
Location:  41.8164°N, 93.8864°W
Report Text: KPRO 211535Z AUTO 12003KT 10SM CLR 12/07 A3016 RMK AO2 T01190071
Loading
Personal Weather Stations






























Interactive Weather Map
Tropical Storm Tracking
New forecast layout! Learn more

10-Day Weather Forecast

Advertisements
Track Severe Weather on mobile